Time;durP1;ratioP1;P1;durP2;ratioP2;P2;SDS_P1;SDS_P2;PMS_P1;PMS_P2;Temp;Humidity;BMP_temperature;BMP_pressure;BME280_temperature;BME280_humidity;BME280_pressure;Samples;Min_cycle;Max_cycle;Signal;HPM_P1;HPM_P2
2023/03/07 00:00:42;;;;;;;30.08;14.02;;;3.60;99.90;;;;;;5028264;28;20045;-82
2023/03/07 00:03:11;;;;;;;24.27;12.25;;;3.60;99.90;;;;;;5017519;28;20018;-92
2023/03/07 00:05:37;;;;;;;27.38;13.82;;;;;;;;;;5001901;28;20097;-88
2023/03/07 00:08:03;;;;;;;26.65;13.35;;;;;;;;;;5025574;28;20029;-85
2023/03/07 00:10:30;;;;;;;27.70;13.40;;;;;;;;;;5015626;28;20027;-84
2023/03/07 00:12:56;;;;;;;29.05;14.30;;;;;;;;;;5001319;28;20026;-84
2023/03/07 00:15:22;;;;;;;27.63;13.82;;;;;;;;;;5010908;28;20034;-82
2023/03/07 00:17:48;;;;;;;27.80;13.93;;;;;;;;;;5000344;28;20029;-83
2023/03/07 00:20:14;;;;;;;30.23;14.20;;;;;;;;;;5012960;28;20436;-82
2023/03/07 00:22:40;;;;;;;30.10;14.63;;;;;;;;;;5002717;28;20052;-82
2023/03/07 00:25:06;;;;;;;26.05;13.82;;;;;;;;;;5000640;28;20030;-81
2023/03/07 00:27:33;;;;;;;29.02;14.57;;;;;;;;;;4997975;28;20084;-81
2023/03/07 00:29:59;;;;;;;27.38;13.77;;;;;;;;;;4998777;28;20057;-85
2023/03/07 00:32:25;;;;;;;28.52;13.43;;;;;;;;;;5001526;28;20124;-81
2023/03/07 00:34:51;;;;;;;28.92;15.07;;;;;;;;;;5002830;28;20045;-81
2023/03/07 00:37:17;;;;;;;30.45;14.95;;;;;;;;;;5014047;28;20029;-85
2023/03/07 00:39:43;;;;;;;29.38;14.80;;;;;;;;;;5009791;28;20050;-81
2023/03/07 00:42:09;;;;;;;30.98;14.48;;;;;;;;;;5012751;28;20065;-82
2023/03/07 00:44:35;;;;;;;29.65;15.07;;;;;;;;;;5000208;28;21168;-86
2023/03/07 00:47:01;;;;;;;27.85;13.25;;;;;;;;;;5015221;28;20033;-84
2023/03/07 00:49:27;;;;;;;30.67;14.55;;;;;;;;;;5015528;28;20030;-83
2023/03/07 00:51:54;;;;;;;36.88;18.00;;;;;;;;;;4994779;28;20035;-85
2023/03/07 00:54:20;;;;;;;31.58;15.30;;;;;;;;;;5020745;28;20034;-83
2023/03/07 00:56:46;;;;;;;27.50;14.07;;;;;;;;;;5013330;28;20098;-86
2023/03/07 00:59:12;;;;;;;29.27;14.50;;;;;;;;;;5023111;28;20005;-86
2023/03/07 01:01:38;;;;;;;30.42;16.33;;;;;;;;;;5006403;28;20049;-86
2023/03/07 01:04:04;;;;;;;32.20;15.15;;;;;;;;;;5002997;28;20504;-85
2023/03/07 01:06:31;;;;;;;26.08;13.57;;;3.20;99.90;;;;;;5006420;28;20044;-84
2023/03/07 01:08:59;;;;;;;29.77;14.98;;;3.20;99.90;;;;;;5008361;28;20038;-84
2023/03/07 01:11:27;;;;;;;40.10;18.52;;;3.20;99.90;;;;;;5014999;28;20038;-88
2023/03/07 01:13:57;;;;;;;30.48;14.10;;;3.30;99.90;;;;;;5023763;28;20042;-82
2023/03/07 01:16:26;;;;;;;27.77;13.38;;;3.30;99.90;;;;;;4999555;28;20046;-81
2023/03/07 01:18:55;;;;;;;27.45;13.23;;;3.40;99.90;;;;;;4996399;28;20035;-81
2023/03/07 01:21:27;;;;;;;27.25;13.98;;;3.40;99.90;;;;;;5008853;28;20034;-82
2023/03/07 01:23:53;;;;;;;30.25;13.15;;;3.50;99.90;;;;;;4989431;28;20131;-82
2023/03/07 01:26:25;;;;;;;25.38;12.85;;;3.50;99.90;;;;;;4993328;28;20093;-82
2023/03/07 01:28:52;;;;;;;32.58;14.25;;;;;;;;;;5000482;28;20040;-84
2023/03/07 01:31:18;;;;;;;26.45;13.77;;;;;;;;;;5012488;28;20037;-85
2023/03/07 01:33:47;;;;;;;29.50;13.65;;;;;;;;;;4997558;28;20223;-82
2023/03/07 01:36:20;;;;;;;30.30;14.18;;;3.50;99.90;;;;;;5013013;28;20050;-82
2023/03/07 01:38:47;;;;;;;26.30;12.38;;;3.50;99.90;;;;;;4992244;28;20411;-86
2023/03/07 01:41:13;;;;;;;26.88;13.63;;;;;;;;;;4995983;28;20121;-83
2023/03/07 01:43:39;;;;;;;24.70;12.75;;;;;;;;;;4994716;28;20068;-86
2023/03/07 01:46:18;;;;;;;25.33;13.20;;;;;;;;;;5010340;28;20061;-82
2023/03/07 01:48:54;;;;;;;26.00;12.85;;;3.60;99.90;;;;;;5018805;28;20033;-83
2023/03/07 01:51:21;;;;;;;26.55;13.02;;;3.60;99.90;;;;;;4998894;28;20030;-84
2023/03/07 01:53:50;;;;;;;22.58;12.20;;;3.60;99.90;;;;;;5007485;28;20498;-89
2023/03/07 01:56:17;;;;;;;24.00;12.68;;;;;;;;;;5002383;28;20014;-82
2023/03/07 01:58:43;;;;;;;28.17;13.05;;;;;;;;;;5020880;28;20053;-86
2023/03/07 02:01:12;;;;;;;25.75;12.45;;;3.60;99.90;;;;;;5004937;28;20051;-87
2023/03/07 02:03:41;;;;;;;26.17;13.05;;;;;;;;;;5019339;28;20044;-82
2023/03/07 02:06:10;;;;;;;25.35;13.18;;;3.60;99.90;;;;;;5023224;28;20034;-83
2023/03/07 02:08:36;;;;;;;27.70;13.10;;;;;;;;;;5004008;28;20034;-82
2023/03/07 02:11:02;;;;;;;23.60;12.73;;;;;;;;;;4990670;28;20030;-82
2023/03/07 02:13:28;;;;;;;25.50;13.57;;;;;;;;;;5000847;28;20033;-84
2023/03/07 02:15:56;;;;;;;24.35;13.07;;;3.60;99.90;;;;;;4988329;28;20034;-82
2023/03/07 02:18:28;;;;;;;24.88;13.07;;;3.60;99.90;;;;;;5005251;28;20026;-88
2023/03/07 02:20:57;;;;;;;25.63;11.90;;;;;;;;;;5015929;28;20026;-82
2023/03/07 02:23:38;;;;;;;25.05;12.18;;;;;;;;;;5015876;28;20029;-84
2023/03/07 02:26:19;;;;;;;23.42;11.98;;;3.60;99.90;;;;;;5003574;28;20030;-83
2023/03/07 02:28:46;;;;;;;24.92;12.25;;;3.60;99.90;;;;;;4983616;28;20045;-83
2023/03/07 02:31:12;;;;;;;25.23;11.50;;;;;;;;;;4998873;28;20076;-82
2023/03/07 02:33:38;;;;;;;22.23;12.55;;;;;;;;;;5005922;28;20034;-90
2023/03/07 02:36:12;;;;;;;20.73;11.05;;;3.70;99.90;;;;;;5016156;28;20038;-84
2023/03/07 02:38:40;;;;;;;23.20;11.65;;;3.70;99.90;;;;;;4999870;28;20030;-82
2023/03/07 02:41:09;;;;;;;22.80;11.65;;;3.70;99.90;;;;;;4994328;28;20026;-81
2023/03/07 02:43:35;;;;;;;24.08;11.82;;;;;;;;;;5003205;28;20081;-84
2023/03/07 02:46:01;;;;;;;23.45;12.35;;;;;;;;;;5011951;28;20034;-81
2023/03/07 02:48:27;;;;;;;21.67;11.88;;;;;;;;;;5008235;28;20041;-83
2023/03/07 02:50:53;;;;;;;21.67;11.32;;;;;;;;;;5004578;28;20030;-81
2023/03/07 02:53:19;;;;;;;22.50;10.75;;;;;;;;;;5008294;28;20121;-84
2023/03/07 02:55:45;;;;;;;21.85;11.32;;;;;;;;;;5017655;28;20488;-82
2023/03/07 02:58:11;;;;;;;20.58;9.85;;;;;;;;;;5015450;28;20032;-82
2023/03/07 03:00:37;;;;;;;22.60;10.23;;;;;;;;;;5003463;28;20050;-82
2023/03/07 03:03:03;;;;;;;20.08;10.15;;;;;;;;;;5010990;28;20037;-83
2023/03/07 03:05:29;;;;;;;26.10;10.48;;;;;;;;;;5005951;28;20034;-83
2023/03/07 03:07:55;;;;;;;20.45;10.68;;;;;;;;;;5015003;28;20018;-88
2023/03/07 03:10:21;;;;;;;18.67;9.55;;;;;;;;;;5014637;28;20044;-87
2023/03/07 03:12:47;;;;;;;24.17;11.65;;;;;;;;;;5006970;28;20052;-81
2023/03/07 03:15:13;;;;;;;23.85;12.18;;;;;;;;;;5001499;28;20025;-82
2023/03/07 03:17:39;;;;;;;19.45;9.45;;;;;;;;;;5003706;28;20030;-84
2023/03/07 03:20:06;;;;;;;21.00;9.70;;;;;;;;;;5025404;28;20026;-84
2023/03/07 03:22:32;;;;;;;21.77;10.50;;;;;;;;;;5007220;28;20085;-88
2023/03/07 03:24:58;;;;;;;18.52;9.55;;;;;;;;;;5012759;28;20025;-82
2023/03/07 03:27:24;;;;;;;17.50;9.70;;;;;;;;;;5007476;28;20145;-83
2023/03/07 03:29:53;;;;;;;20.92;9.65;;;4.20;99.90;;;;;;5013698;28;20034;-83
2023/03/07 03:32:19;;;;;;;20.73;10.57;;;;;;;;;;5032537;28;20030;-85
2023/03/07 03:34:45;;;;;;;19.98;9.65;;;;;;;;;;5016192;28;20090;-81
2023/03/07 03:37:11;;;;;;;19.83;10.02;;;;;;;;;;5008821;28;20026;-82
2023/03/07 03:39:38;;;;;;;16.88;9.48;;;;;;;;;;5013859;28;20041;-80
2023/03/07 03:42:05;;;;;;;18.45;10.07;;;;;;;;;;5023932;28;20017;-84
2023/03/07 03:44:31;;;;;;;17.65;10.10;;;;;;;;;;5004844;28;20029;-81
2023/03/07 03:46:57;;;;;;;22.50;9.30;;;;;;;;;;5005698;28;20030;-81
2023/03/07 03:49:22;;;;;;;19.23;9.73;;;4.20;99.90;;;;;;5002260;28;20033;-85
2023/03/07 03:51:48;;;;;;;18.55;9.50;;;;;;;;;;5027567;28;20037;-83
2023/03/07 03:54:14;;;;;;;18.52;9.57;;;;;;;;;;4989016;28;20038;-81
2023/03/07 03:56:40;;;;;;;18.05;8.75;;;;;;;;;;4997429;28;20057;-85
2023/03/07 03:59:07;;;;;;;17.95;9.27;;;;;;;;;;4999626;28;20058;-84
2023/03/07 04:01:33;;;;;;;17.20;8.63;;;;;;;;;;4998180;28;20045;-82
2023/03/07 04:03:59;;;;;;;16.52;9.05;;;;;;;;;;4997685;28;20033;-83
2023/03/07 04:06:27;;;;;;;15.90;8.35;;;4.30;99.90;;;;;;5001837;28;20107;-81
2023/03/07 04:08:53;;;;;;;16.85;8.90;;;4.30;99.90;;;;;;5005729;28;20038;-81
2023/03/07 04:11:21;;;;;;;15.88;9.48;;;4.30;99.90;;;;;;4992529;28;20508;-81
2023/03/07 04:13:47;;;;;;;20.17;9.13;;;;;;;;;;4991084;28;20037;-87
2023/03/07 04:16:13;;;;;;;15.77;9.07;;;;;;;;;;4993980;28;20038;-84
2023/03/07 04:18:39;;;;;;;18.48;9.02;;;;;;;;;;4995734;28;20550;-86
2023/03/07 04:21:05;;;;;;;14.93;8.40;;;;;;;;;;5006806;28;20576;-84
2023/03/07 04:23:31;;;;;;;17.48;8.23;;;;;;;;;;5013083;28;20025;-81
2023/03/07 04:25:59;;;;;;;15.70;8.13;;;4.30;99.90;;;;;;4992931;28;20026;-86
2023/03/07 04:28:28;;;;;;;17.30;8.38;;;4.30;99.90;;;;;;4987769;28;20038;-82
2023/03/07 04:30:55;;;;;;;15.38;7.97;;;;;;;;;;5008398;28;20038;-80
2023/03/07 04:33:21;;;;;;;15.55;7.78;;;4.30;99.90;;;;;;4999899;28;20038;-81
2023/03/07 04:35:47;;;;;;;17.00;8.30;;;;;;;;;;4997234;28;20049;-81
2023/03/07 04:38:14;;;;;;;17.13;8.65;;;4.20;99.90;;;;;;4993715;28;20112;-86
2023/03/07 04:40:40;;;;;;;16.10;7.85;;;;;;;;;;5007657;28;20037;-81
2023/03/07 04:43:06;;;;;;;14.95;8.23;;;;;;;;;;4996596;28;20022;-81
2023/03/07 04:45:34;;;;;;;17.40;8.32;;;4.20;99.90;;;;;;4998705;28;20041;-84
2023/03/07 04:48:00;;;;;;;15.15;8.35;;;;;;;;;;5004208;28;20034;-82
2023/03/07 04:50:26;;;;;;;16.00;7.93;;;;;;;;;;5011886;28;20033;-82
2023/03/07 04:52:52;;;;;;;18.70;8.38;;;;;;;;;;4996731;28;20026;-83
2023/03/07 04:55:18;;;;;;;15.35;8.00;;;;;;;;;;5015200;28;20057;-82
2023/03/07 04:57:45;;;;;;;19.02;7.88;;;;;;;;;;5005361;28;20447;-80
2023/03/07 05:00:12;;;;;;;14.88;7.50;;;4.30;99.90;;;;;;4994788;28;20037;-83
2023/03/07 05:02:38;;;;;;;14.07;8.02;;;;;;;;;;4999284;28;20038;-85
2023/03/07 05:05:04;;;;;;;15.20;7.97;;;4.30;99.90;;;;;;4983466;28;20066;-81
2023/03/07 05:07:31;;;;;;;15.23;7.72;;;;;;;;;;4991500;28;20121;-81
2023/03/07 05:09:57;;;;;;;19.38;8.10;;;;;;;;;;4997640;28;20041;-80
2023/03/07 05:12:23;;;;;;;16.45;8.43;;;4.20;99.90;;;;;;5010124;28;20037;-81
2023/03/07 05:14:49;;;;;;;13.90;7.85;;;;;;;;;;4995606;28;20042;-81
2023/03/07 05:17:16;;;;;;;17.48;8.50;;;;;;;;;;5008774;28;20026;-84
2023/03/07 05:19:42;;;;;;;18.17;7.97;;;;;;;;;;4993902;28;20035;-83
2023/03/07 05:22:08;;;;;;;13.63;7.85;;;;;;;;;;5009362;28;20045;-83
2023/03/07 05:24:34;;;;;;;13.07;8.23;;;;;;;;;;5009103;28;20517;-81
2023/03/07 05:27:00;;;;;;;15.52;7.80;;;;;;;;;;5017680;28;20030;-83
2023/03/07 05:29:26;;;;;;;23.10;12.77;;;;;;;;;;5006705;28;20030;-82
2023/03/07 05:31:52;;;;;;;16.63;8.45;;;;;;;;;;4996536;28;20635;-81
2023/03/07 05:34:18;;;;;;;14.57;7.57;;;;;;;;;;5014465;28;20052;-84
2023/03/07 05:36:44;;;;;;;14.43;7.80;;;;;;;;;;4999098;28;20042;-81
2023/03/07 05:39:10;;;;;;;15.18;7.97;;;;;;;;;;4990071;28;20034;-82
2023/03/07 05:41:36;;;;;;;14.25;7.95;;;;;;;;;;4995945;28;20030;-81
2023/03/07 05:44:02;;;;;;;13.52;7.80;;;;;;;;;;5009536;28;20021;-83
2023/03/07 05:46:29;;;;;;;14.45;7.88;;;;;;;;;;4993389;28;20576;-83
2023/03/07 05:48:55;;;;;;;13.02;7.95;;;;;;;;;;5017164;28;20053;-82
2023/03/07 05:51:21;;;;;;;14.70;8.32;;;;;;;;;;4997587;28;20069;-82
2023/03/07 05:53:46;;;;;;;14.70;8.00;;;4.10;99.90;;;;;;4992958;28;20046;-83
2023/03/07 05:56:12;;;;;;;12.95;7.50;;;6.50;99.90;;;;;;4997166;28;20076;-82
2023/03/07 05:58:39;;;;;;;19.40;8.60;;;;;;;;;;5002754;28;20026;-82
2023/03/07 06:01:05;;;;;;;12.93;7.05;;;;;;;;;;4995577;28;20026;-82
2023/03/07 06:03:31;;;;;;;13.05;7.40;;;;;;;;;;5022456;28;20107;-80
2023/03/07 06:05:57;;;;;;;17.50;8.38;;;;;;;;;;5007077;28;20038;-80
2023/03/07 06:08:23;;;;;;;16.50;8.35;;;;;;;;;;5003558;28;20030;-79
2023/03/07 06:10:50;;;;;;;15.43;7.63;;;;;;;;;;5013314;28;20557;-82
2023/03/07 06:13:18;;;;;;;14.88;7.88;;;3.90;99.90;;;;;;5014025;28;20436;-81
2023/03/07 06:15:44;;;;;;;16.08;7.13;;;;;;;;;;5008762;28;20057;-84
2023/03/07 06:18:13;;;;;;;15.73;8.05;;;;;;;;;;5018017;28;20580;-82
2023/03/07 06:20:39;;;;;;;16.25;8.00;;;;;;;;;;5004821;28;20030;-81
2023/03/07 06:23:05;;;;;;;13.05;6.95;;;;;;;;;;4998582;28;20030;-82
2023/03/07 06:25:31;;;;;;;17.52;8.15;;;;;;;;;;5015246;28;20030;-85
2023/03/07 06:27:59;;;;;;;14.23;7.70;;;;;;;;;;5008648;28;20049;-81
2023/03/07 06:30:26;;;;;;;15.40;8.18;;;3.90;99.90;;;;;;4999794;28;20041;-83
2023/03/07 06:32:52;;;;;;;15.00;8.20;;;;;;;;;;4991958;28;20030;-83
2023/03/07 06:35:18;;;;;;;12.15;7.18;;;;;;;;;;4997642;28;20160;-85
2023/03/07 06:37:44;;;;;;;14.88;7.82;;;;;;;;;;5010021;28;20054;-81
2023/03/07 06:40:10;;;;;;;16.48;8.20;;;;;;;;;;4994182;28;20049;-83
2023/03/07 06:42:37;;;;;;;20.08;8.85;;;;;;;;;;4989241;28;20030;-81
2023/03/07 06:45:03;;;;;;;15.82;7.30;;;3.90;99.90;;;;;;5009459;28;20117;-81
2023/03/07 06:47:29;;;;;;;14.82;8.07;;;;;;;;;;4977977;28;20038;-83
2023/03/07 06:49:56;;;;;;;17.15;8.18;;;;;;;;;;5002650;28;20117;-83
2023/03/07 06:52:22;;;;;;;14.38;8.30;;;;;;;;;;4986439;28;20095;-80
2023/03/07 06:54:48;;;;;;;15.77;8.60;;;;;;;;;;5005205;28;21344;-82
2023/03/07 06:57:14;;;;;;;15.07;7.72;;;;;;;;;;4987709;28;20053;-80
2023/03/07 06:59:40;;;;;;;14.35;7.97;;;;;;;;;;4993703;28;20058;-84
2023/03/07 07:02:06;;;;;;;14.45;7.65;;;;;;;;;;4991138;28;20025;-81
2023/03/07 07:04:32;;;;;;;14.40;7.35;;;;;;;;;;4989840;28;20115;-81
2023/03/07 07:06:59;;;;;;;13.60;8.05;;;;;;;;;;5005506;28;20041;-83
2023/03/07 07:09:25;;;;;;;13.68;7.07;;;;;;;;;;4993515;28;20810;-80
2023/03/07 07:11:51;;;;;;;14.02;7.38;;;;;;;;;;4990711;28;20042;-84
2023/03/07 07:14:17;;;;;;;12.70;6.70;;;;;;;;;;5001065;28;20060;-83
2023/03/07 07:16:42;;;;;;;15.07;8.18;;;;;;;;;;4979739;28;20577;-83
2023/03/07 07:19:09;;;;;;;13.65;7.35;;;;;;;;;;4999203;28;20050;-84
2023/03/07 07:21:35;;;;;;;13.82;6.97;;;;;;;;;;5025057;28;20030;-86
2023/03/07 07:24:01;;;;;;;13.02;7.25;;;;;;;;;;5024243;28;20033;-84
2023/03/07 07:26:27;;;;;;;12.50;7.00;;;;;;;;;;5029704;28;20089;-88
2023/03/07 07:28:53;;;;;;;13.68;7.30;;;;;;;;;;5009356;28;20057;-86
2023/03/07 07:31:19;;;;;;;15.23;8.18;;;;;;;;;;5008399;28;20034;-85
2023/03/07 07:33:45;;;;;;;13.05;6.80;;;;;;;;;;5009781;28;20081;-84
2023/03/07 07:36:11;;;;;;;11.85;6.72;;;;;;;;;;5012353;28;20030;-86
2023/03/07 07:38:37;;;;;;;15.02;6.80;;;;;;;;;;5008044;28;20035;-89
2023/03/07 07:41:03;;;;;;;13.82;7.55;;;;;;;;;;4996960;28;20030;-86
2023/03/07 07:43:30;;;;;;;13.45;7.50;;;;;;;;;;5003693;28;20034;-87
2023/03/07 07:45:56;;;;;;;14.43;7.45;;;;;;;;;;5008755;28;20038;-86
2023/03/07 07:48:22;;;;;;;14.20;7.03;;;;;;;;;;5022879;28;20022;-86
2023/03/07 07:50:48;;;;;;;13.85;7.65;;;;;;;;;;5005032;28;20749;-85
2023/03/07 07:53:17;;;;;;;12.70;7.50;;;;;;;;;;5017805;28;20045;-90
2023/03/07 07:55:47;;;;;;;17.95;7.45;;;;;;;;;;5015163;28;20054;-86
2023/03/07 07:58:13;;;;;;;12.88;7.10;;;;;;;;;;5010941;28;20014;-85
2023/03/07 08:00:39;;;;;;;13.57;7.20;;;;;;;;;;5010711;28;20038;-83
2023/03/07 08:03:05;;;;;;;14.02;7.25;;;;;;;;;;5011980;28;20041;-83
2023/03/07 08:05:32;;;;;;;14.85;7.40;;;;;;;;;;4997419;28;20865;-86
2023/03/07 08:07:58;;;;;;;14.15;7.32;;;;;;;;;;5012506;28;20037;-84
2023/03/07 08:10:24;;;;;;;15.85;7.45;;;;;;;;;;5015875;28;20110;-85
2023/03/07 08:12:50;;;;;;;16.17;7.32;;;;;;;;;;5012590;28;20022;-85
2023/03/07 08:15:16;;;;;;;13.55;7.88;;;;;;;;;;5017338;28;20022;-83
2023/03/07 08:17:43;;;;;;;16.15;8.57;;;4.70;99.90;;;;;;5012648;28;20496;-82
2023/03/07 08:20:09;;;;;;;16.83;7.47;;;;;;;;;;5026671;28;20056;-85
2023/03/07 08:22:36;;;;;;;14.57;8.23;;;4.60;99.90;;;;;;5006747;28;20034;-91
2023/03/07 08:25:03;;;;;;;13.00;6.95;;;4.60;99.90;;;;;;4996897;28;20045;-78
2023/03/07 08:27:29;;;;;;;16.50;8.57;;;4.60;99.90;;;;;;4996068;28;20031;-80
2023/03/07 08:29:55;;;;;;;16.92;7.80;;;;;;;;;;4995239;28;20031;-85
2023/03/07 08:32:24;;;;;;;13.13;7.60;;;;;;;;;;5010766;28;20026;-85
2023/03/07 08:34:50;;;;;;;14.20;8.02;;;;;;;;;;5002387;28;20030;-82
2023/03/07 08:37:16;;;;;;;14.10;7.55;;;;;;;;;;5002161;28;20018;-84
2023/03/07 08:39:42;;;;;;;15.57;7.55;;;;;;;;;;5022463;28;20478;-82
2023/03/07 08:42:09;;;;;;;15.23;7.97;;;;;;;;;;5004832;28;20026;-84
2023/03/07 08:44:35;;;;;;;14.95;7.63;;;;;;;;;;5011247;28;20098;-83
2023/03/07 08:47:01;;;;;;;16.65;8.43;;;;;;;;;;5005546;28;20072;-85
2023/03/07 08:49:26;;;;;;;14.02;7.57;;;;;;;;;;4995822;28;20033;-83
2023/03/07 08:51:52;;;;;;;17.17;8.38;;;;;;;;;;5021468;28;20449;-86
2023/03/07 08:54:18;;;;;;;15.05;7.88;;;;;;;;;;5003480;28;20034;-85
2023/03/07 08:56:44;;;;;;;16.30;8.52;;;;;;;;;;4995894;28;20506;-84
2023/03/07 08:59:10;;;;;;;13.77;7.57;;;;;;;;;;4997888;28;20022;-83
2023/03/07 09:01:36;;;;;;;17.98;9.18;;;;;;;;;;5000385;28;20053;-84
2023/03/07 09:04:03;;;;;;;12.55;7.18;;;;;;;;;;4997800;28;20423;-88
2023/03/07 09:06:30;;;;;;;17.08;8.38;;;;;;;;;;5016604;28;20052;-87
2023/03/07 09:08:56;;;;;;;15.52;8.07;;;;;;;;;;5015581;28;20466;-83
2023/03/07 09:11:22;;;;;;;17.77;8.50;;;;;;;;;;4992881;28;20091;-82
2023/03/07 09:13:48;;;;;;;18.52;9.38;;;;;;;;;;4993883;28;20041;-86
2023/03/07 09:16:14;;;;;;;17.70;8.38;;;;;;;;;;5011157;28;20035;-83
2023/03/07 09:18:40;;;;;;;16.10;8.25;;;;;;;;;;5011456;28;20010;-89
2023/03/07 09:21:06;;;;;;;17.52;8.73;;;;;;;;;;5004439;28;20594;-84
2023/03/07 09:23:32;;;;;;;16.63;8.52;;;;;;;;;;5013493;28;20026;-83
2023/03/07 09:25:59;;;;;;;14.73;7.60;;;;;;;;;;5004477;28;20112;-83
2023/03/07 09:28:25;;;;;;;19.65;8.43;;;;;;;;;;4999804;28;20152;-86
2023/03/07 09:30:51;;;;;;;16.00;8.55;;;;;;;;;;5005303;28;20036;-83
2023/03/07 09:33:17;;;;;;;20.33;10.63;;;;;;;;;;4997181;28;20137;-85
2023/03/07 09:35:43;;;;;;;16.30;8.23;;;;;;;;;;4990796;28;20038;-83
2023/03/07 09:38:09;;;;;;;18.92;8.02;;;;;;;;;;4994034;28;20100;-83
2023/03/07 09:40:37;;;;;;;18.02;8.43;;;;;;;;;;4988817;28;20045;-83
2023/03/07 09:43:20;;;;;;;14.35;7.82;;;;;;;;;;5017411;28;20029;-83
2023/03/07 09:45:48;;;;;;;14.48;7.70;;;;;;;;;;5010565;28;20029;-84
2023/03/07 09:48:33;;;;;;;18.58;9.60;;;;;;;;;;4990032;28;20524;-84
2023/03/07 09:51:15;;;;;;;17.27;9.02;;;;;;;;;;4995311;28;20030;-83
2023/03/07 09:53:58;;;;;;;18.40;8.60;;;6.70;99.90;;;;;;5010514;28;20415;-85
2023/03/07 09:56:27;;;;;;;17.00;8.85;;;;;;;;;;4992697;28;20031;-84
2023/03/07 09:58:58;;;;;;;23.25;9.52;;;;;;;;;;5005333;28;20021;-82
2023/03/07 10:01:25;;;;;;;21.15;9.45;;;;;;;;;;5010164;28;20026;-82
2023/03/07 10:03:56;;;;;;;20.35;9.43;;;;;;;;;;5006731;28;20054;-85
2023/03/07 10:06:40;;;;;;;18.85;10.48;;;6.80;99.90;;;;;;5011247;28;20026;-82
2023/03/07 10:09:07;;;;;;;16.20;8.95;;;;;;;;;;5003252;28;20098;-83
2023/03/07 10:11:50;;;;;;;18.50;9.10;;;;;;;;;;5000766;28;20034;-83
2023/03/07 10:14:37;;;;;;;17.30;9.38;;;;;;;;;;5001308;28;20084;-83
2023/03/07 10:17:03;;;;;;;16.33;9.40;;;;;;;;;;4998627;28;20041;-81
2023/03/07 10:20:01;;;;;;;18.73;9.90;;;;;;;;;;4999989;28;20033;-82
2023/03/07 10:23:26;;;;;;;17.48;9.98;;;6.90;99.90;;;;;;5020409;28;20593;-82
2023/03/07 10:26:47;;;;;;;16.65;9.13;;;6.70;99.90;;;;;;5027309;28;20040;-84
2023/03/07 10:32:27;;;;;;;18.75;8.63;;;6.50;99.90;;;;;;5009372;28;20399;-82
2023/03/07 10:35:23;;;;;;;24.70;9.02;;;;;;;;;;5007373;28;20038;-84
2023/03/07 10:38:29;;;;;;;;;;;6.60;99.90;;;;;;5017428;28;20033;-83
2023/03/07 10:41:21;;;;;;;29.20;10.70;;;;;;;;;;5033228;28;19909;-84
2023/03/07 10:43:55;;;;;;;17.67;9.68;;;;;;;;;;5009365;28;20053;-85
2023/03/07 10:46:37;;;;;;;17.52;8.30;;;;;;;;;;5033510;28;20030;-84
2023/03/07 10:49:23;;;;;;;15.40;8.57;;;;;;;;;;5020615;28;20549;-84
2023/03/07 10:52:32;;;;;;;18.58;8.40;;;6.60;99.90;;;;;;5024150;28;20041;-83
2023/03/07 10:55:23;;;;;;;17.17;8.63;;;;;;;;;;5011109;28;20033;-83
2023/03/07 10:58:21;;;;;;;15.10;7.70;;;;;;;;;;4997650;23;20042;-80
2023/03/07 11:01:17;;;;;;;13.48;7.28;;;;;;;;;;4984521;28;20798;-81
2023/03/07 11:03:46;;;;;;;16.50;8.55;;;;;;;;;;4969357;28;20041;-78
2023/03/07 11:06:31;;;;;;;17.02;8.30;;;6.90;99.90;;;;;;4967078;28;20046;-81
2023/03/07 11:09:06;;;;;;;16.70;8.40;;;6.80;99.90;;;;;;4986933;28;20030;-79
2023/03/07 11:11:32;;;;;;;16.50;7.20;;;;;;;;;;4965910;28;20053;-81
2023/03/07 11:14:09;;;;;;;17.17;7.78;;;;;;;;;;4969432;28;20054;-82
2023/03/07 11:16:54;;;;;;;11.55;6.70;;;;;;;;;;4975406;28;20138;-80
2023/03/07 11:19:30;;;;;;;16.35;7.90;;;;;;;;;;4971230;28;20022;-80
2023/03/07 11:21:57;;;;;;;15.50;7.55;;;;;;;;;;4965714;28;20094;-81
2023/03/07 11:24:27;;;;;;;14.40;6.45;;;;;;;;;;4968705;28;20022;-81
2023/03/07 11:26:54;;;;;;;16.67;7.20;;;;;;;;;;4965314;28;20034;-80
2023/03/07 11:29:20;;;;;;;10.77;6.43;;;;;;;;;;4971491;28;20035;-78
